sensor_id;sensor_type;location;lat;lon;timestamp;temperature;humidity
67101;DHT22;54019;61.746;16.106;2023-03-01T00:01:00;22.40;26.20
67101;DHT22;54019;61.746;16.106;2023-03-01T00:03:26;22.40;26.20
67101;DHT22;54019;61.746;16.106;2023-03-01T00:05:52;22.40;26.30
67101;DHT22;54019;61.746;16.106;2023-03-01T00:08:18;22.30;26.30
67101;DHT22;54019;61.746;16.106;2023-03-01T00:10:44;22.30;26.40
67101;DHT22;54019;61.746;16.106;2023-03-01T00:13:09;22.30;26.20
67101;DHT22;54019;61.746;16.106;2023-03-01T00:15:38;22.40;26.00
67101;DHT22;54019;61.746;16.106;2023-03-01T00:18:05;22.40;26.00
67101;DHT22;54019;61.746;16.106;2023-03-01T00:20:31;22.40;26.00
67101;DHT22;54019;61.746;16.106;2023-03-01T00:22:57;22.40;26.00
67101;DHT22;54019;61.746;16.106;2023-03-01T00:25:23;22.50;26.00
67101;DHT22;54019;61.746;16.106;2023-03-01T00:27:48;22.50;26.00
67101;DHT22;54019;61.746;16.106;2023-03-01T00:30:14;22.50;26.00
67101;DHT22;54019;61.746;16.106;2023-03-01T00:32:40;22.50;26.00
67101;DHT22;54019;61.746;16.106;2023-03-01T00:35:08;22.50;26.00
67101;DHT22;54019;61.746;16.106;2023-03-01T00:37:34;22.50;26.00
67101;DHT22;54019;61.746;16.106;2023-03-01T00:40:00;22.40;25.90
67101;DHT22;54019;61.746;16.106;2023-03-01T00:42:26;22.40;25.90
67101;DHT22;54019;61.746;16.106;2023-03-01T00:44:52;22.40;25.80
67101;DHT22;54019;61.746;16.106;2023-03-01T00:47:18;22.40;25.90
67101;DHT22;54019;61.746;16.106;2023-03-01T00:49:43;22.30;25.90
67101;DHT22;54019;61.746;16.106;2023-03-01T00:52:11;22.30;25.90
67101;DHT22;54019;61.746;16.106;2023-03-01T00:54:36;22.30;26.00
67101;DHT22;54019;61.746;16.106;2023-03-01T00:57:02;22.30;26.40
67101;DHT22;54019;61.746;16.106;2023-03-01T00:59:28;22.30;25.70
67101;DHT22;54019;61.746;16.106;2023-03-01T01:01:54;22.40;25.70
67101;DHT22;54019;61.746;16.106;2023-03-01T01:04:19;22.40;25.70
67101;DHT22;54019;61.746;16.106;2023-03-01T01:06:46;22.40;25.70
67101;DHT22;54019;61.746;16.106;2023-03-01T01:09:15;22.50;25.70
67101;DHT22;54019;61.746;16.106;2023-03-01T01:11:41;22.50;25.70
67101;DHT22;54019;61.746;16.106;2023-03-01T01:14:07;22.50;26.30
67101;DHT22;54019;61.746;16.106;2023-03-01T01:16:33;22.40;25.60
67101;DHT22;54019;61.746;16.106;2023-03-01T01:18:59;22.40;25.50
67101;DHT22;54019;61.746;16.106;2023-03-01T01:21:25;22.40;25.60
67101;DHT22;54019;61.746;16.106;2023-03-01T01:23:52;22.40;25.70
67101;DHT22;54019;61.746;16.106;2023-03-01T01:26:21;22.30;25.80
67101;DHT22;54019;61.746;16.106;2023-03-01T01:28:47;22.30;25.90
67101;DHT22;54019;61.746;16.106;2023-03-01T01:31:13;22.30;25.90
67101;DHT22;54019;61.746;16.106;2023-03-01T01:33:39;22.20;25.70
67101;DHT22;54019;61.746;16.106;2023-03-01T01:36:06;22.20;25.60
67101;DHT22;54019;61.746;16.106;2023-03-01T01:38:32;22.20;25.40
67101;DHT22;54019;61.746;16.106;2023-03-01T01:40:59;22.30;25.40
67101;DHT22;54019;61.746;16.106;2023-03-01T01:43:28;22.40;25.40
67101;DHT22;54019;61.746;16.106;2023-03-01T01:45:56;22.40;25.40
67101;DHT22;54019;61.746;16.106;2023-03-01T01:48:29;22.40;25.30
67101;DHT22;54019;61.746;16.106;2023-03-01T01:51:00;22.40;25.40
67101;DHT22;54019;61.746;16.106;2023-03-01T01:53:26;22.40;25.30
67101;DHT22;54019;61.746;16.106;2023-03-01T01:55:55;22.40;25.40
67101;DHT22;54019;61.746;16.106;2023-03-01T01:58:22;22.40;25.60
67101;DHT22;54019;61.746;16.106;2023-03-01T02:00:51;22.40;25.40
67101;DHT22;54019;61.746;16.106;2023-03-01T02:03:19;22.40;25.30
67101;DHT22;54019;61.746;16.106;2023-03-01T02:05:50;22.30;25.40
67101;DHT22;54019;61.746;16.106;2023-03-01T02:08:20;22.30;25.30
67101;DHT22;54019;61.746;16.106;2023-03-01T02:10:48;22.30;25.50
67101;DHT22;54019;61.746;16.106;2023-03-01T02:13:15;22.20;25.50
67101;DHT22;54019;61.746;16.106;2023-03-01T02:15:41;22.20;25.60
67101;DHT22;54019;61.746;16.106;2023-03-01T02:18:10;22.20;25.60
67101;DHT22;54019;61.746;16.106;2023-03-01T02:20:43;22.30;25.60
67101;DHT22;54019;61.746;16.106;2023-03-01T02:23:09;22.30;25.70
67101;DHT22;54019;61.746;16.106;2023-03-01T02:25:40;22.40;25.60
67101;DHT22;54019;61.746;16.106;2023-03-01T02:28:26;22.40;25.70
67101;DHT22;54019;61.746;16.106;2023-03-01T02:30:54;22.40;25.60
67101;DHT22;54019;61.746;16.106;2023-03-01T02:33:20;22.40;25.60
67101;DHT22;54019;61.746;16.106;2023-03-01T02:35:46;22.40;25.50
67101;DHT22;54019;61.746;16.106;2023-03-01T02:38:11;22.40;25.50
67101;DHT22;54019;61.746;16.106;2023-03-01T02:40:38;22.50;25.60
67101;DHT22;54019;61.746;16.106;2023-03-01T02:43:08;22.40;25.60
67101;DHT22;54019;61.746;16.106;2023-03-01T02:45:37;22.40;25.60
67101;DHT22;54019;61.746;16.106;2023-03-01T02:48:03;22.30;25.70
67101;DHT22;54019;61.746;16.106;2023-03-01T02:50:45;22.30;25.90
67101;DHT22;54019;61.746;16.106;2023-03-01T02:53:13;22.20;25.90
67101;DHT22;54019;61.746;16.106;2023-03-01T02:55:41;22.20;25.90
67101;DHT22;54019;61.746;16.106;2023-03-01T02:58:08;22.20;25.80
67101;DHT22;54019;61.746;16.106;2023-03-01T03:00:38;22.20;25.60
67101;DHT22;54019;61.746;16.106;2023-03-01T03:03:05;22.20;25.50
67101;DHT22;54019;61.746;16.106;2023-03-01T03:05:31;22.30;25.60
67101;DHT22;54019;61.746;16.106;2023-03-01T03:07:59;22.40;25.50
67101;DHT22;54019;61.746;16.106;2023-03-01T03:10:27;22.40;25.60
67101;DHT22;54019;61.746;16.106;2023-03-01T03:12:55;22.40;25.60
67101;DHT22;54019;61.746;16.106;2023-03-01T03:15:22;22.40;25.60
67101;DHT22;54019;61.746;16.106;2023-03-01T03:17:50;22.40;25.60
67101;DHT22;54019;61.746;16.106;2023-03-01T03:20:19;22.40;25.50
67101;DHT22;54019;61.746;16.106;2023-03-01T03:22:45;22.40;25.50
67101;DHT22;54019;61.746;16.106;2023-03-01T03:25:12;22.40;25.50
67101;DHT22;54019;61.746;16.106;2023-03-01T03:27:39;22.30;25.40
67101;DHT22;54019;61.746;16.106;2023-03-01T03:30:07;22.30;25.40
67101;DHT22;54019;61.746;16.106;2023-03-01T03:32:33;22.20;25.20
67101;DHT22;54019;61.746;16.106;2023-03-01T03:35:00;22.20;25.50
67101;DHT22;54019;61.746;16.106;2023-03-01T03:37:26;22.20;25.80
67101;DHT22;54019;61.746;16.106;2023-03-01T03:39:52;22.20;25.80
67101;DHT22;54019;61.746;16.106;2023-03-01T03:42:17;22.20;25.70
67101;DHT22;54019;61.746;16.106;2023-03-01T03:44:43;22.20;25.50
67101;DHT22;54019;61.746;16.106;2023-03-01T03:47:09;22.30;28.10
67101;DHT22;54019;61.746;16.106;2023-03-01T03:49:35;22.40;25.90
67101;DHT22;54019;61.746;16.106;2023-03-01T03:52:02;22.40;26.20
67101;DHT22;54019;61.746;16.106;2023-03-01T03:54:27;22.50;26.50
67101;DHT22;54019;61.746;16.106;2023-03-01T03:56:53;22.50;26.90
67101;DHT22;54019;61.746;16.106;2023-03-01T03:59:19;22.60;27.10
67101;DHT22;54019;61.746;16.106;2023-03-01T04:01:45;22.60;27.40
67101;DHT22;54019;61.746;16.106;2023-03-01T04:04:10;22.70;28.20
67101;DHT22;54019;61.746;16.106;2023-03-01T04:06:36;22.70;28.30
67101;DHT22;54019;61.746;16.106;2023-03-01T04:09:03;22.70;28.30
67101;DHT22;54019;61.746;16.106;2023-03-01T04:11:29;22.70;27.90
67101;DHT22;54019;61.746;16.106;2023-03-01T04:13:56;22.70;28.20
67101;DHT22;54019;61.746;16.106;2023-03-01T04:16:23;22.60;27.60
67101;DHT22;54019;61.746;16.106;2023-03-01T04:18:49;22.50;27.90
67101;DHT22;54019;61.746;16.106;2023-03-01T04:21:15;22.50;27.40
67101;DHT22;54019;61.746;16.106;2023-03-01T04:23:41;22.40;27.20
67101;DHT22;54019;61.746;16.106;2023-03-01T04:26:08;22.40;26.90
67101;DHT22;54019;61.746;16.106;2023-03-01T04:28:35;22.40;26.70
67101;DHT22;54019;61.746;16.106;2023-03-01T04:31:04;22.40;26.50
67101;DHT22;54019;61.746;16.106;2023-03-01T04:33:30;22.50;26.30
67101;DHT22;54019;61.746;16.106;2023-03-01T04:35:55;22.50;26.20
67101;DHT22;54019;61.746;16.106;2023-03-01T04:38:21;22.50;26.10
67101;DHT22;54019;61.746;16.106;2023-03-01T04:40:47;22.50;26.00
67101;DHT22;54019;61.746;16.106;2023-03-01T04:43:14;22.50;25.90
67101;DHT22;54019;61.746;16.106;2023-03-01T04:45:40;22.40;25.80
67101;DHT22;54019;61.746;16.106;2023-03-01T04:48:06;22.40;25.90
67101;DHT22;54019;61.746;16.106;2023-03-01T04:50:32;22.40;25.90
67101;DHT22;54019;61.746;16.106;2023-03-01T04:52:58;22.40;25.90
67101;DHT22;54019;61.746;16.106;2023-03-01T04:55:25;22.30;25.90
67101;DHT22;54019;61.746;16.106;2023-03-01T04:57:51;22.30;25.90
67101;DHT22;54019;61.746;16.106;2023-03-01T05:00:18;22.30;26.00
67101;DHT22;54019;61.746;16.106;2023-03-01T05:02:44;22.20;25.90
67101;DHT22;54019;61.746;16.106;2023-03-01T05:05:10;22.20;25.80
67101;DHT22;54019;61.746;16.106;2023-03-01T05:07:35;22.20;25.80
67101;DHT22;54019;61.746;16.106;2023-03-01T05:10:01;22.30;25.80
67101;DHT22;54019;61.746;16.106;2023-03-01T05:12:27;22.30;25.70
67101;DHT22;54019;61.746;16.106;2023-03-01T05:14:53;22.30;25.60
67101;DHT22;54019;61.746;16.106;2023-03-01T05:17:20;22.40;25.50
67101;DHT22;54019;61.746;16.106;2023-03-01T05:19:46;22.40;25.40
67101;DHT22;54019;61.746;16.106;2023-03-01T05:22:11;22.40;25.30
67101;DHT22;54019;61.746;16.106;2023-03-01T05:24:37;22.40;25.30
67101;DHT22;54019;61.746;16.106;2023-03-01T05:27:03;22.40;25.40
67101;DHT22;54019;61.746;16.106;2023-03-01T05:29:31;22.30;25.30
67101;DHT22;54019;61.746;16.106;2023-03-01T05:31:58;22.30;25.40
67101;DHT22;54019;61.746;16.106;2023-03-01T05:34:27;22.30;25.30
67101;DHT22;54019;61.746;16.106;2023-03-01T05:36:54;22.20;25.20
67101;DHT22;54019;61.746;16.106;2023-03-01T05:39:20;22.20;25.20
67101;DHT22;54019;61.746;16.106;2023-03-01T05:41:46;22.20;25.30
67101;DHT22;54019;61.746;16.106;2023-03-01T05:44:12;22.10;25.30
67101;DHT22;54019;61.746;16.106;2023-03-01T05:46:37;22.10;25.20
67101;DHT22;54019;61.746;16.106;2023-03-01T05:49:03;22.10;25.20
67101;DHT22;54019;61.746;16.106;2023-03-01T05:51:30;22.20;25.20
67101;DHT22;54019;61.746;16.106;2023-03-01T05:53:56;22.20;25.10
67101;DHT22;54019;61.746;16.106;2023-03-01T05:56:22;22.30;25.20
67101;DHT22;54019;61.746;16.106;2023-03-01T05:58:48;22.30;25.40
67101;DHT22;54019;61.746;16.106;2023-03-01T06:01:13;22.40;25.10
67101;DHT22;54019;61.746;16.106;2023-03-01T06:03:39;22.40;25.00
67101;DHT22;54019;61.746;16.106;2023-03-01T06:06:05;22.30;25.00
67101;DHT22;54019;61.746;16.106;2023-03-01T06:08:32;22.30;25.00
67101;DHT22;54019;61.746;16.106;2023-03-01T06:10:58;22.30;25.00
67101;DHT22;54019;61.746;16.106;2023-03-01T06:13:24;22.30;25.20
67101;DHT22;54019;61.746;16.106;2023-03-01T06:15:50;22.30;25.10
67101;DHT22;54019;61.746;16.106;2023-03-01T06:18:16;22.30;25.20
67101;DHT22;54019;61.746;16.106;2023-03-01T06:20:42;22.20;25.20
67101;DHT22;54019;61.746;16.106;2023-03-01T06:23:08;22.20;25.40
67101;DHT22;54019;61.746;16.106;2023-03-01T06:25:35;22.20;25.40
67101;DHT22;54019;61.746;16.106;2023-03-01T06:28:01;22.20;25.30
67101;DHT22;54019;61.746;16.106;2023-03-01T06:30:26;22.10;25.20
67101;DHT22;54019;61.746;16.106;2023-03-01T06:32:52;22.20;25.10
67101;DHT22;54019;61.746;16.106;2023-03-01T06:35:19;22.20;25.10
67101;DHT22;54019;61.746;16.106;2023-03-01T06:37:46;22.20;25.00
67101;DHT22;54019;61.746;16.106;2023-03-01T06:40:13;22.20;24.90
67101;DHT22;54019;61.746;16.106;2023-03-01T06:42:43;22.30;25.00
67101;DHT22;54019;61.746;16.106;2023-03-01T06:45:10;22.30;24.90
67101;DHT22;54019;61.746;16.106;2023-03-01T06:47:36;22.30;24.90
67101;DHT22;54019;61.746;16.106;2023-03-01T06:50:02;22.30;24.80
67101;DHT22;54019;61.746;16.106;2023-03-01T06:52:28;22.30;24.80
67101;DHT22;54019;61.746;16.106;2023-03-01T06:54:54;22.30;24.90
67101;DHT22;54019;61.746;16.106;2023-03-01T06:57:20;22.20;24.80
67101;DHT22;54019;61.746;16.106;2023-03-01T06:59:47;22.20;24.80
67101;DHT22;54019;61.746;16.106;2023-03-01T07:02:14;22.20;24.80
67101;DHT22;54019;61.746;16.106;2023-03-01T07:04:40;22.20;24.80
67101;DHT22;54019;61.746;16.106;2023-03-01T07:07:06;22.10;24.80
67101;DHT22;54019;61.746;16.106;2023-03-01T07:09:32;22.10;24.90
67101;DHT22;54019;61.746;16.106;2023-03-01T07:11:57;22.10;24.80
67101;DHT22;54019;61.746;16.106;2023-03-01T07:14:23;22.20;24.80
67101;DHT22;54019;61.746;16.106;2023-03-01T07:16:51;22.20;24.70
67101;DHT22;54019;61.746;16.106;2023-03-01T07:19:17;22.20;24.70
67101;DHT22;54019;61.746;16.106;2023-03-01T07:21:42;22.30;24.60
67101;DHT22;54019;61.746;16.106;2023-03-01T07:24:08;22.30;24.60
67101;DHT22;54019;61.746;16.106;2023-03-01T07:26:34;22.30;24.50
67101;DHT22;54019;61.746;16.106;2023-03-01T07:29:00;22.30;24.50
67101;DHT22;54019;61.746;16.106;2023-03-01T07:31:26;22.30;24.40
67101;DHT22;54019;61.746;16.106;2023-03-01T07:33:53;22.30;24.40
67101;DHT22;54019;61.746;16.106;2023-03-01T07:36:19;22.30;24.50
67101;DHT22;54019;61.746;16.106;2023-03-01T07:38:45;22.30;24.40
67101;DHT22;54019;61.746;16.106;2023-03-01T07:41:11;22.20;24.40
67101;DHT22;54019;61.746;16.106;2023-03-01T07:43:37;22.20;24.40
67101;DHT22;54019;61.746;16.106;2023-03-01T07:46:03;22.20;24.30
67101;DHT22;54019;61.746;16.106;2023-03-01T07:48:30;22.20;24.40
67101;DHT22;54019;61.746;16.106;2023-03-01T07:50:59;22.20;24.40
67101;DHT22;54019;61.746;16.106;2023-03-01T07:53:25;22.10;24.40
67101;DHT22;54019;61.746;16.106;2023-03-01T07:56:00;22.20;24.40
67101;DHT22;54019;61.746;16.106;2023-03-01T07:58:26;22.20;24.30
67101;DHT22;54019;61.746;16.106;2023-03-01T08:00:52;22.30;24.30
67101;DHT22;54019;61.746;16.106;2023-03-01T08:03:18;22.30;24.30
67101;DHT22;54019;61.746;16.106;2023-03-01T08:05:43;22.40;24.20
67101;DHT22;54019;61.746;16.106;2023-03-01T08:08:11;22.50;24.20
67101;DHT22;54019;61.746;16.106;2023-03-01T08:10:36;22.50;24.00
67101;DHT22;54019;61.746;16.106;2023-03-01T08:13:02;22.50;23.70
67101;DHT22;54019;61.746;16.106;2023-03-01T08:15:28;22.60;23.50
67101;DHT22;54019;61.746;16.106;2023-03-01T08:17:54;22.60;23.80
67101;DHT22;54019;61.746;16.106;2023-03-01T08:20:19;22.60;23.80
67101;DHT22;54019;61.746;16.106;2023-03-01T08:22:45;22.60;24.00
67101;DHT22;54019;61.746;16.106;2023-03-01T08:25:12;22.60;24.10
67101;DHT22;54019;61.746;16.106;2023-03-01T08:27:38;22.60;24.00
67101;DHT22;54019;61.746;16.106;2023-03-01T08:30:05;22.60;24.00
67101;DHT22;54019;61.746;16.106;2023-03-01T08:32:36;22.60;24.10
67101;DHT22;54019;61.746;16.106;2023-03-01T08:35:02;22.60;24.30
67101;DHT22;54019;61.746;16.106;2023-03-01T08:37:28;22.60;24.30
67101;DHT22;54019;61.746;16.106;2023-03-01T08:39:53;22.70;24.30
67101;DHT22;54019;61.746;16.106;2023-03-01T08:42:20;22.80;24.10
67101;DHT22;54019;61.746;16.106;2023-03-01T08:44:46;22.90;24.30
67101;DHT22;54019;61.746;16.106;2023-03-01T08:47:12;22.90;24.10
67101;DHT22;54019;61.746;16.106;2023-03-01T08:49:38;23.00;24.60
67101;DHT22;54019;61.746;16.106;2023-03-01T08:52:04;23.00;24.00
67101;DHT22;54019;61.746;16.106;2023-03-01T08:54:29;23.00;23.80
67101;DHT22;54019;61.746;16.106;2023-03-01T08:56:55;23.00;23.70
67101;DHT22;54019;61.746;16.106;2023-03-01T08:59:22;23.10;24.00
67101;DHT22;54019;61.746;16.106;2023-03-01T09:01:48;23.10;23.80
67101;DHT22;54019;61.746;16.106;2023-03-01T09:04:15;23.10;23.70
67101;DHT22;54019;61.746;16.106;2023-03-01T09:06:41;23.10;23.80
67101;DHT22;54019;61.746;16.106;2023-03-01T09:09:07;23.00;23.70
67101;DHT22;54019;61.746;16.106;2023-03-01T09:11:37;23.10;24.00
67101;DHT22;54019;61.746;16.106;2023-03-01T09:14:05;23.10;23.90
67101;DHT22;54019;61.746;16.106;2023-03-01T09:16:32;23.10;24.00
67101;DHT22;54019;61.746;16.106;2023-03-01T09:18:58;23.10;24.10
67101;DHT22;54019;61.746;16.106;2023-03-01T09:21:24;23.10;23.90
67101;DHT22;54019;61.746;16.106;2023-03-01T09:23:50;23.20;24.00
67101;DHT22;54019;61.746;16.106;2023-03-01T09:26:18;23.20;24.20
67101;DHT22;54019;61.746;16.106;2023-03-01T09:28:44;23.30;24.10
67101;DHT22;54019;61.746;16.106;2023-03-01T09:31:10;23.30;24.00
67101;DHT22;54019;61.746;16.106;2023-03-01T09:33:37;23.40;23.80
67101;DHT22;54019;61.746;16.106;2023-03-01T09:36:05;23.50;23.80
67101;DHT22;54019;61.746;16.106;2023-03-01T09:38:31;23.40;23.80
67101;DHT22;54019;61.746;16.106;2023-03-01T09:40:57;23.40;23.80
67101;DHT22;54019;61.746;16.106;2023-03-01T09:43:27;23.50;23.90
67101;DHT22;54019;61.746;16.106;2023-03-01T09:46:00;23.50;23.90
67101;DHT22;54019;61.746;16.106;2023-03-01T09:48:32;23.50;23.90
67101;DHT22;54019;61.746;16.106;2023-03-01T09:51:02;23.50;24.00
67101;DHT22;54019;61.746;16.106;2023-03-01T09:53:33;23.50;24.00
67101;DHT22;54019;61.746;16.106;2023-03-01T09:56:00;23.40;23.90
67101;DHT22;54019;61.746;16.106;2023-03-01T09:58:37;23.40;24.10
67101;DHT22;54019;61.746;16.106;2023-03-01T10:01:11;23.40;24.10
67101;DHT22;54019;61.746;16.106;2023-03-01T10:03:44;23.30;24.30
67101;DHT22;54019;61.746;16.106;2023-03-01T10:06:20;23.20;24.30
67101;DHT22;54019;61.746;16.106;2023-03-01T10:08:52;23.20;24.60
67101;DHT22;54019;61.746;16.106;2023-03-01T10:11:21;23.10;24.70
67101;DHT22;54019;61.746;16.106;2023-03-01T10:13:52;23.10;24.80
67101;DHT22;54019;61.746;16.106;2023-03-01T10:16:24;23.20;24.70
67101;DHT22;54019;61.746;16.106;2023-03-01T10:18:55;23.20;24.30
67101;DHT22;54019;61.746;16.106;2023-03-01T10:21:22;23.30;24.50
67101;DHT22;54019;61.746;16.106;2023-03-01T10:23:50;23.30;24.40
67101;DHT22;54019;61.746;16.106;2023-03-01T10:26:33;23.30;24.30
67101;DHT22;54019;61.746;16.106;2023-03-01T10:29:03;23.30;24.20
67101;DHT22;54019;61.746;16.106;2023-03-01T10:31:38;23.30;24.30
67101;DHT22;54019;61.746;16.106;2023-03-01T10:34:09;23.20;24.20
67101;DHT22;54019;61.746;16.106;2023-03-01T10:36:38;23.20;24.20
67101;DHT22;54019;61.746;16.106;2023-03-01T10:39:12;23.20;24.30
67101;DHT22;54019;61.746;16.106;2023-03-01T10:41:56;23.10;24.30
67101;DHT22;54019;61.746;16.106;2023-03-01T10:44:42;23.10;24.40
67101;DHT22;54019;61.746;16.106;2023-03-01T10:47:14;23.10;24.50
67101;DHT22;54019;61.746;16.106;2023-03-01T10:49:55;23.00;24.50
67101;DHT22;54019;61.746;16.106;2023-03-01T10:52:24;23.00;24.60
67101;DHT22;54019;61.746;16.106;2023-03-01T10:54:54;23.00;24.60
67101;DHT22;54019;61.746;16.106;2023-03-01T10:57:33;23.00;24.50
67101;DHT22;54019;61.746;16.106;2023-03-01T11:00:19;22.90;24.60
67101;DHT22;54019;61.746;16.106;2023-03-01T11:02:48;23.00;24.80
67101;DHT22;54019;61.746;16.106;2023-03-01T11:05:19;22.90;24.60
67101;DHT22;54019;61.746;16.106;2023-03-01T11:07:49;23.00;24.80
67101;DHT22;54019;61.746;16.106;2023-03-01T11:10:17;23.00;24.60
67101;DHT22;54019;61.746;16.106;2023-03-01T11:12:43;23.10;24.30
67101;DHT22;54019;61.746;16.106;2023-03-01T11:15:20;23.10;24.30
67101;DHT22;54019;61.746;16.106;2023-03-01T11:17:47;23.10;24.20
67101;DHT22;54019;61.746;16.106;2023-03-01T11:20:20;23.10;24.20
67101;DHT22;54019;61.746;16.106;2023-03-01T11:22:54;23.10;24.10
67101;DHT22;54019;61.746;16.106;2023-03-01T11:25:24;23.10;24.20
67101;DHT22;54019;61.746;16.106;2023-03-01T11:27:51;23.10;24.10
67101;DHT22;54019;61.746;16.106;2023-03-01T11:30:20;23.10;24.10
67101;DHT22;54019;61.746;16.106;2023-03-01T11:32:51;23.00;24.10
67101;DHT22;54019;61.746;16.106;2023-03-01T11:35:21;23.00;24.10
67101;DHT22;54019;61.746;16.106;2023-03-01T11:38:03;23.00;24.10
67101;DHT22;54019;61.746;16.106;2023-03-01T11:40:32;23.00;24.40
67101;DHT22;54019;61.746;16.106;2023-03-01T11:43:09;22.90;25.20
67101;DHT22;54019;61.746;16.106;2023-03-01T11:45:53;22.80;25.40
67101;DHT22;54019;61.746;16.106;2023-03-01T11:48:39;22.80;25.60
67101;DHT22;54019;61.746;16.106;2023-03-01T11:51:11;22.80;25.30
67101;DHT22;54019;61.746;16.106;2023-03-01T11:53:54;22.70;25.40
67101;DHT22;54019;61.746;16.106;2023-03-01T11:56:30;22.70;25.40
67101;DHT22;54019;61.746;16.106;2023-03-01T11:59:20;22.70;25.00
67101;DHT22;54019;61.746;16.106;2023-03-01T12:02:08;22.70;25.10
67101;DHT22;54019;61.746;16.106;2023-03-01T12:04:59;22.70;25.20
67101;DHT22;54019;61.746;16.106;2023-03-01T12:07:36;22.70;26.60
67101;DHT22;54019;61.746;16.106;2023-03-01T12:10:22;22.70;37.10
67101;DHT22;54019;61.746;16.106;2023-03-01T12:13:03;22.70;34.60
67101;DHT22;54019;61.746;16.106;2023-03-01T12:15:52;22.70;32.30
67101;DHT22;54019;61.746;16.106;2023-03-01T12:18:53;22.70;31.60
67101;DHT22;54019;61.746;16.106;2023-03-01T12:21:31;22.70;30.70
67101;DHT22;54019;61.746;16.106;2023-03-01T12:24:16;22.70;30.00
67101;DHT22;54019;61.746;16.106;2023-03-01T12:26:57;22.70;29.40
67101;DHT22;54019;61.746;16.106;2023-03-01T12:29:29;22.70;29.40
67101;DHT22;54019;61.746;16.106;2023-03-01T12:32:15;22.60;29.50
67101;DHT22;54019;61.746;16.106;2023-03-01T12:35:12;22.70;30.30
67101;DHT22;54019;61.746;16.106;2023-03-01T12:37:49;22.70;29.60
67101;DHT22;54019;61.746;16.106;2023-03-01T12:43:21;22.80;29.30
67101;DHT22;54019;61.746;16.106;2023-03-01T12:45:58;22.80;29.30
67101;DHT22;54019;61.746;16.106;2023-03-01T12:48:41;22.80;29.00
67101;DHT22;54019;61.746;16.106;2023-03-01T12:51:11;22.80;29.10
67101;DHT22;54019;61.746;16.106;2023-03-01T12:53:40;22.80;29.30
67101;DHT22;54019;61.746;16.106;2023-03-01T12:56:10;22.80;29.20
67101;DHT22;54019;61.746;16.106;2023-03-01T12:58:41;22.80;28.50
67101;DHT22;54019;61.746;16.106;2023-03-01T13:01:16;22.70;28.20
67101;DHT22;54019;61.746;16.106;2023-03-01T13:04:00;22.70;28.40
67101;DHT22;54019;61.746;16.106;2023-03-01T13:06:32;22.60;28.90
67101;DHT22;54019;61.746;16.106;2023-03-01T13:09:05;22.60;28.00
67101;DHT22;54019;61.746;16.106;2023-03-01T13:11:33;22.50;27.90
67101;DHT22;54019;61.746;16.106;2023-03-01T13:16:59;22.40;27.60
67101;DHT22;54019;61.746;16.106;2023-03-01T13:19:26;22.40;27.50
67101;DHT22;54019;61.746;16.106;2023-03-01T13:21:53;22.50;27.70
67101;DHT22;54019;61.746;16.106;2023-03-01T13:24:27;22.40;27.70
67101;DHT22;54019;61.746;16.106;2023-03-01T13:27:22;22.40;27.90
67101;DHT22;54019;61.746;16.106;2023-03-01T13:29:50;22.40;27.50
67101;DHT22;54019;61.746;16.106;2023-03-01T13:32:22;22.50;27.20
67101;DHT22;54019;61.746;16.106;2023-03-01T13:34:56;22.60;27.00
67101;DHT22;54019;61.746;16.106;2023-03-01T13:37:28;22.70;26.90
67101;DHT22;54019;61.746;16.106;2023-03-01T13:39:54;22.70;26.90
67101;DHT22;54019;61.746;16.106;2023-03-01T13:42:47;22.70;26.70
67101;DHT22;54019;61.746;16.106;2023-03-01T13:45:20;22.70;26.80
67101;DHT22;54019;61.746;16.106;2023-03-01T13:47:50;22.70;26.80
67101;DHT22;54019;61.746;16.106;2023-03-01T13:50:20;22.70;26.90
67101;DHT22;54019;61.746;16.106;2023-03-01T13:52:50;22.60;26.60
67101;DHT22;54019;61.746;16.106;2023-03-01T13:55:19;22.60;26.60
67101;DHT22;54019;61.746;16.106;2023-03-01T13:57:48;22.50;26.70
67101;DHT22;54019;61.746;16.106;2023-03-01T14:00:33;22.50;26.80
67101;DHT22;54019;61.746;16.106;2023-03-01T14:03:08;22.50;26.90
67101;DHT22;54019;61.746;16.106;2023-03-01T14:05:35;22.40;26.80
67101;DHT22;54019;61.746;16.106;2023-03-01T14:08:01;22.40;27.00
67101;DHT22;54019;61.746;16.106;2023-03-01T14:10:36;22.40;27.20
67101;DHT22;54019;61.746;16.106;2023-03-01T14:13:13;22.40;27.50
67101;DHT22;54019;61.746;16.106;2023-03-01T14:15:49;22.40;27.60
67101;DHT22;54019;61.746;16.106;2023-03-01T14:18:20;22.40;27.60
67101;DHT22;54019;61.746;16.106;2023-03-01T14:20:48;22.30;27.70
67101;DHT22;54019;61.746;16.106;2023-03-01T14:23:15;22.30;27.60
67101;DHT22;54019;61.746;16.106;2023-03-01T14:25:46;22.30;27.70
67101;DHT22;54019;61.746;16.106;2023-03-01T14:28:14;22.30;27.70
67101;DHT22;54019;61.746;16.106;2023-03-01T14:30:41;22.30;27.50
67101;DHT22;54019;61.746;16.106;2023-03-01T14:33:17;22.40;27.30
67101;DHT22;54019;61.746;16.106;2023-03-01T14:35:51;22.50;27.20
67101;DHT22;54019;61.746;16.106;2023-03-01T14:38:20;22.50;27.10
67101;DHT22;54019;61.746;16.106;2023-03-01T14:40:46;22.50;26.90
67101;DHT22;54019;61.746;16.106;2023-03-01T14:43:16;22.50;26.90
67101;DHT22;54019;61.746;16.106;2023-03-01T14:45:46;22.60;26.70
67101;DHT22;54019;61.746;16.106;2023-03-01T14:48:12;22.50;26.70
67101;DHT22;54019;61.746;16.106;2023-03-01T14:50:41;22.50;26.60
67101;DHT22;54019;61.746;16.106;2023-03-01T14:53:07;22.50;26.80
67101;DHT22;54019;61.746;16.106;2023-03-01T14:55:41;22.40;26.50
67101;DHT22;54019;61.746;16.106;2023-03-01T14:58:10;22.40;26.60
67101;DHT22;54019;61.746;16.106;2023-03-01T15:00:37;22.40;26.50
67101;DHT22;54019;61.746;16.106;2023-03-01T15:03:05;22.30;26.60
67101;DHT22;54019;61.746;16.106;2023-03-01T15:05:32;22.40;26.60
67101;DHT22;54019;61.746;16.106;2023-03-01T15:08:01;22.30;26.60
67101;DHT22;54019;61.746;16.106;2023-03-01T15:10:27;22.30;26.60
67101;DHT22;54019;61.746;16.106;2023-03-01T15:12:53;22.30;26.80
67101;DHT22;54019;61.746;16.106;2023-03-01T15:15:26;22.30;26.90
67101;DHT22;54019;61.746;16.106;2023-03-01T15:17:55;22.20;26.70
67101;DHT22;54019;61.746;16.106;2023-03-01T15:20:22;22.30;26.80
67101;DHT22;54019;61.746;16.106;2023-03-01T15:22:48;22.20;26.70
67101;DHT22;54019;61.746;16.106;2023-03-01T15:25:16;22.20;26.60
67101;DHT22;54019;61.746;16.106;2023-03-01T15:27:45;22.20;26.60
67101;DHT22;54019;61.746;16.106;2023-03-01T15:30:13;22.20;26.50
67101;DHT22;54019;61.746;16.106;2023-03-01T15:32:42;22.20;27.20